Accueil
METAR-TAF:

METAR-TAF

Aéroports :

Aéroport de Cagliari-Elmas

Cagliari, Italie

latitude: 39-15N, longitude: 009-04E, altitude: 4 m

Observation

Le bulletin a été fait il y a 21 minutes, à 00:20 UTC
Vent 8 kt de est/sud-est
Température 28°C
Humidité 51%
Pression 1011 hPa
Visibilité 10 km ou plus
pas de nuages en-dessous de 1500 mètres et pas de cumulonimbus.

METAR: LIEE 040020Z 11008KT CAVOK 28/17 Q1011

Heure: 02:41 (00:41 UTC)

Prévision

Le bulletin a été fait il y a 1 heure et 41 minutes, à 23:00 UTC
Prévision valable du 04 à 00 UTC au 04 à 24 UTC
Vent 5 kt de direction variable
Visibilité 10 km ou plus
Quelques nuages à une hauteur de 4000 ft
Evoluant progressivement
du 04 à 09 UTC au 04 à 11 UTC
Vent 12 kt de sud/sud-est
Evoluant progressivement
du 04 à 17 UTC au 04 à 19 UTC
Vent 5 kt de direction variable

TAF: LIEE 032300Z 0400/0424 VRB05KT 9999 FEW040 BECMG 0409/0411 16012KT BECMG 0417/0419 VRB05KT

Observations et prévisions météorologiques de plus de 4000 aéroports (messages METAR et TAF).

Les stations disponibles sont représentées par des disques jaunes et rouges sur la carte.

Passer la souris dessus pour voir le nom de la station.

Cliquer dessus pour voir les observations et prévisions météorologiques.

Pour changer de carte: cliquez sur les boutons verts avec une croix noire pour zoomer, sur le bouton vert avec un tiret pour effectuer un zoom arrière, ou sur les flèches vertes pour les cartes adjacentes.


METAR-TAF: